Junction City, Wisconsin
Current Conditions -  °F | °C
As of 6:55 AM on Saturday 25 Oct 2014 (Local Time) from KSTE Reporting Station
Clear Clear  
Wind Chill: 46°   Ceiling: Unl
Heat Index: 49°   Visibility: 10mi
Dew Point: 43°   Wind: 7mph
Humidity: 81%   Direction: 280°W
Pressure: 29.87"   Gusts: NA
Location:  44.59°N, 89.77°W
Report Text: KSTE 251155Z AUTO 28006KT 10SM CLR 10/06 A2987 RMK AO2 P0001 60002 70008 T00950063 10125 20095
Loading
Personal Weather Stations






























Interactive Weather Map
Tropical Storm Tracking
New forecast layout! Learn more

10-Day Weather Forecast

Advertisements
Track Severe Weather on mobile